sensor_id;sensor_type;location;lat;lon;timestamp;P1;durP1;ratioP1;P2;durP2;ratioP2
4827;SDS011;2428;48.732;9.148;2022-10-28T00:00:25;1.90;;;1.77;;
4827;SDS011;2428;48.732;9.148;2022-10-28T00:02:51;2.10;;;1.60;;
4827;SDS011;2428;48.732;9.148;2022-10-28T00:05:16;1.80;;;1.50;;
4827;SDS011;2428;48.732;9.148;2022-10-28T00:07:42;2.30;;;1.67;;
4827;SDS011;2428;48.732;9.148;2022-10-28T00:10:07;2.67;;;2.20;;
4827;SDS011;2428;48.732;9.148;2022-10-28T00:12:34;5.37;;;2.37;;
4827;SDS011;2428;48.732;9.148;2022-10-28T00:15:00;1.63;;;1.20;;
4827;SDS011;2428;48.732;9.148;2022-10-28T00:17:27;3.63;;;1.83;;
4827;SDS011;2428;48.732;9.148;2022-10-28T00:19:52;5.43;;;2.27;;
4827;SDS011;2428;48.732;9.148;2022-10-28T00:22:18;2.70;;;1.50;;
4827;SDS011;2428;48.732;9.148;2022-10-28T00:24:43;7.80;;;1.43;;
4827;SDS011;2428;48.732;9.148;2022-10-28T00:27:09;2.87;;;1.70;;
4827;SDS011;2428;48.732;9.148;2022-10-28T00:29:34;2.40;;;1.87;;
4827;SDS011;2428;48.732;9.148;2022-10-28T00:32:00;4.00;;;2.60;;
4827;SDS011;2428;48.732;9.148;2022-10-28T00:34:26;2.33;;;2.00;;
4827;SDS011;2428;48.732;9.148;2022-10-28T00:36:51;1.73;;;1.63;;
4827;SDS011;2428;48.732;9.148;2022-10-28T00:39:18;3.53;;;1.67;;
4827;SDS011;2428;48.732;9.148;2022-10-28T00:41:46;1.67;;;1.57;;
4827;SDS011;2428;48.732;9.148;2022-10-28T00:44:59;1.70;;;1.60;;
4827;SDS011;2428;48.732;9.148;2022-10-28T00:50:44;3.70;;;1.80;;
4827;SDS011;2428;48.732;9.148;2022-10-28T00:52:54;1.63;;;1.50;;
4827;SDS011;2428;48.732;9.148;2022-10-28T00:55:24;4.37;;;2.27;;
4827;SDS011;2428;48.732;9.148;2022-10-28T00:57:50;5.03;;;2.03;;
4827;SDS011;2428;48.732;9.148;2022-10-28T01:00:20;4.10;;;2.40;;
4827;SDS011;2428;48.732;9.148;2022-10-28T01:02:48;2.83;;;2.40;;
4827;SDS011;2428;48.732;9.148;2022-10-28T01:05:15;2.87;;;2.20;;
4827;SDS011;2428;48.732;9.148;2022-10-28T01:07:45;7.83;;;2.00;;
4827;SDS011;2428;48.732;9.148;2022-10-28T01:10:11;2.53;;;1.57;;
4827;SDS011;2428;48.732;9.148;2022-10-28T01:23:34;2.43;;;2.10;;
4827;SDS011;2428;48.732;9.148;2022-10-28T01:32:43;2.67;;;1.50;;
4827;SDS011;2428;48.732;9.148;2022-10-28T01:34:54;3.00;;;1.80;;
4827;SDS011;2428;48.732;9.148;2022-10-28T01:37:34;1.70;;;1.60;;
4827;SDS011;2428;48.732;9.148;2022-10-28T01:40:11;2.10;;;1.50;;
4827;SDS011;2428;48.732;9.148;2022-10-28T01:42:45;1.50;;;1.40;;
4827;SDS011;2428;48.732;9.148;2022-10-28T01:45:50;6.63;;;2.50;;
4827;SDS011;2428;48.732;9.148;2022-10-28T01:48:34;1.60;;;1.50;;
4827;SDS011;2428;48.732;9.148;2022-10-28T01:51:37;2.40;;;2.20;;
4827;SDS011;2428;48.732;9.148;2022-10-28T01:54:14;5.20;;;2.60;;
4827;SDS011;2428;48.732;9.148;2022-10-28T01:56:42;2.10;;;1.90;;
4827;SDS011;2428;48.732;9.148;2022-10-28T01:59:11;2.90;;;2.00;;
4827;SDS011;2428;48.732;9.148;2022-10-28T02:01:38;3.23;;;2.00;;
4827;SDS011;2428;48.732;9.148;2022-10-28T02:04:04;3.00;;;2.23;;
4827;SDS011;2428;48.732;9.148;2022-10-28T02:06:30;2.60;;;2.27;;
4827;SDS011;2428;48.732;9.148;2022-10-28T02:19:51;3.43;;;2.07;;
4827;SDS011;2428;48.732;9.148;2022-10-28T02:22:33;2.20;;;2.00;;
4827;SDS011;2428;48.732;9.148;2022-10-28T02:25:16;3.33;;;2.60;;
4827;SDS011;2428;48.732;9.148;2022-10-28T02:31:00;1.93;;;1.70;;
4827;SDS011;2428;48.732;9.148;2022-10-28T02:33:10;2.53;;;1.90;;
4827;SDS011;2428;48.732;9.148;2022-10-28T02:35:43;2.47;;;1.83;;
4827;SDS011;2428;48.732;9.148;2022-10-28T02:38:15;2.47;;;2.27;;
4827;SDS011;2428;48.732;9.148;2022-10-28T02:40:46;2.97;;;1.67;;
4827;SDS011;2428;48.732;9.148;2022-10-28T02:43:16;4.07;;;2.27;;
4827;SDS011;2428;48.732;9.148;2022-10-28T02:45:45;4.63;;;2.20;;
4827;SDS011;2428;48.732;9.148;2022-10-28T02:48:15;2.70;;;2.00;;
4827;SDS011;2428;48.732;9.148;2022-10-28T02:50:47;2.77;;;1.83;;
4827;SDS011;2428;48.732;9.148;2022-10-28T02:53:19;3.03;;;2.73;;
4827;SDS011;2428;48.732;9.148;2022-10-28T02:55:49;2.23;;;1.90;;
4827;SDS011;2428;48.732;9.148;2022-10-28T02:58:21;5.13;;;2.43;;
4827;SDS011;2428;48.732;9.148;2022-10-28T03:00:47;2.73;;;2.27;;
4827;SDS011;2428;48.732;9.148;2022-10-28T03:03:13;1.97;;;1.87;;
4827;SDS011;2428;48.732;9.148;2022-10-28T03:05:39;2.23;;;1.93;;
4827;SDS011;2428;48.732;9.148;2022-10-28T03:08:04;2.40;;;1.97;;
4827;SDS011;2428;48.732;9.148;2022-10-28T03:10:30;3.17;;;2.00;;
4827;SDS011;2428;48.732;9.148;2022-10-28T03:12:56;1.70;;;1.60;;
4827;SDS011;2428;48.732;9.148;2022-10-28T03:15:21;2.43;;;2.03;;
4827;SDS011;2428;48.732;9.148;2022-10-28T03:17:47;2.93;;;2.03;;
4827;SDS011;2428;48.732;9.148;2022-10-28T03:20:12;3.80;;;2.30;;
4827;SDS011;2428;48.732;9.148;2022-10-28T03:22:38;3.63;;;1.70;;
4827;SDS011;2428;48.732;9.148;2022-10-28T03:25:09;2.10;;;1.90;;
4827;SDS011;2428;48.732;9.148;2022-10-28T03:27:34;1.70;;;1.60;;
4827;SDS011;2428;48.732;9.148;2022-10-28T03:30:06;3.27;;;2.30;;
4827;SDS011;2428;48.732;9.148;2022-10-28T03:32:32;2.37;;;1.60;;
4827;SDS011;2428;48.732;9.148;2022-10-28T03:34:58;2.10;;;1.90;;
4827;SDS011;2428;48.732;9.148;2022-10-28T03:37:23;3.60;;;2.27;;
4827;SDS011;2428;48.732;9.148;2022-10-28T03:39:49;3.60;;;2.10;;
4827;SDS011;2428;48.732;9.148;2022-10-28T03:42:14;3.63;;;2.20;;
4827;SDS011;2428;48.732;9.148;2022-10-28T03:44:40;2.23;;;2.03;;
4827;SDS011;2428;48.732;9.148;2022-10-28T03:47:05;2.10;;;1.67;;
4827;SDS011;2428;48.732;9.148;2022-10-28T03:49:31;1.93;;;1.60;;
4827;SDS011;2428;48.732;9.148;2022-10-28T03:51:57;2.10;;;1.90;;
4827;SDS011;2428;48.732;9.148;2022-10-28T03:54:22;3.17;;;2.23;;
4827;SDS011;2428;48.732;9.148;2022-10-28T03:56:48;1.37;;;1.27;;
4827;SDS011;2428;48.732;9.148;2022-10-28T03:59:13;2.43;;;1.93;;
4827;SDS011;2428;48.732;9.148;2022-10-28T04:01:39;2.70;;;1.93;;
4827;SDS011;2428;48.732;9.148;2022-10-28T04:04:04;1.50;;;1.40;;
4827;SDS011;2428;48.732;9.148;2022-10-28T04:06:30;2.33;;;2.13;;
4827;SDS011;2428;48.732;9.148;2022-10-28T04:08:56;2.83;;;1.83;;
4827;SDS011;2428;48.732;9.148;2022-10-28T04:11:21;2.37;;;2.17;;
4827;SDS011;2428;48.732;9.148;2022-10-28T04:13:47;2.20;;;1.97;;
4827;SDS011;2428;48.732;9.148;2022-10-28T04:16:12;2.70;;;2.50;;
4827;SDS011;2428;48.732;9.148;2022-10-28T04:18:38;3.80;;;1.87;;
4827;SDS011;2428;48.732;9.148;2022-10-28T04:21:03;3.87;;;2.27;;
4827;SDS011;2428;48.732;9.148;2022-10-28T04:23:29;2.43;;;1.70;;
4827;SDS011;2428;48.732;9.148;2022-10-28T04:25:55;1.73;;;1.63;;
4827;SDS011;2428;48.732;9.148;2022-10-28T04:28:20;3.93;;;2.50;;
4827;SDS011;2428;48.732;9.148;2022-10-28T04:30:48;5.77;;;2.27;;
4827;SDS011;2428;48.732;9.148;2022-10-28T04:33:14;3.30;;;1.97;;
4827;SDS011;2428;48.732;9.148;2022-10-28T04:35:40;2.67;;;1.97;;
4827;SDS011;2428;48.732;9.148;2022-10-28T04:38:09;3.47;;;2.30;;
4827;SDS011;2428;48.732;9.148;2022-10-28T04:40:35;3.03;;;2.37;;
4827;SDS011;2428;48.732;9.148;2022-10-28T04:43:01;1.83;;;1.40;;
4827;SDS011;2428;48.732;9.148;2022-10-28T04:45:26;1.70;;;1.60;;
4827;SDS011;2428;48.732;9.148;2022-10-28T04:47:56;2.50;;;1.77;;
4827;SDS011;2428;48.732;9.148;2022-10-28T04:50:22;3.90;;;1.60;;
4827;SDS011;2428;48.732;9.148;2022-10-28T04:52:48;2.20;;;1.80;;
4827;SDS011;2428;48.732;9.148;2022-10-28T04:55:13;2.13;;;1.57;;
4827;SDS011;2428;48.732;9.148;2022-10-28T04:57:39;2.53;;;2.07;;
4827;SDS011;2428;48.732;9.148;2022-10-28T05:00:05;3.23;;;1.83;;
4827;SDS011;2428;48.732;9.148;2022-10-28T05:02:31;2.73;;;2.47;;
4827;SDS011;2428;48.732;9.148;2022-10-28T05:04:56;3.37;;;2.33;;
4827;SDS011;2428;48.732;9.148;2022-10-28T05:07:27;4.00;;;2.33;;
4827;SDS011;2428;48.732;9.148;2022-10-28T05:09:53;2.30;;;2.10;;
4827;SDS011;2428;48.732;9.148;2022-10-28T05:12:18;3.70;;;1.90;;
4827;SDS011;2428;48.732;9.148;2022-10-28T05:14:44;2.03;;;1.90;;
4827;SDS011;2428;48.732;9.148;2022-10-28T05:17:09;2.47;;;2.00;;
4827;SDS011;2428;48.732;9.148;2022-10-28T05:19:35;4.60;;;2.40;;
4827;SDS011;2428;48.732;9.148;2022-10-28T05:22:01;2.10;;;1.83;;
4827;SDS011;2428;48.732;9.148;2022-10-28T05:24:27;1.80;;;1.53;;
4827;SDS011;2428;48.732;9.148;2022-10-28T05:26:52;4.03;;;2.20;;
4827;SDS011;2428;48.732;9.148;2022-10-28T05:29:18;2.17;;;1.80;;
4827;SDS011;2428;48.732;9.148;2022-10-28T05:31:44;2.20;;;2.00;;
4827;SDS011;2428;48.732;9.148;2022-10-28T05:34:10;2.40;;;1.80;;
4827;SDS011;2428;48.732;9.148;2022-10-28T05:36:36;3.07;;;2.50;;
4827;SDS011;2428;48.732;9.148;2022-10-28T05:39:02;3.00;;;1.93;;
4827;SDS011;2428;48.732;9.148;2022-10-28T05:41:29;3.00;;;1.87;;
4827;SDS011;2428;48.732;9.148;2022-10-28T05:43:55;2.43;;;2.17;;
4827;SDS011;2428;48.732;9.148;2022-10-28T05:46:20;1.80;;;1.70;;
4827;SDS011;2428;48.732;9.148;2022-10-28T05:48:46;2.20;;;1.50;;
4827;SDS011;2428;48.732;9.148;2022-10-28T05:51:12;3.13;;;2.30;;
4827;SDS011;2428;48.732;9.148;2022-10-28T05:53:38;2.10;;;1.50;;
4827;SDS011;2428;48.732;9.148;2022-10-28T05:56:05;2.17;;;1.70;;
4827;SDS011;2428;48.732;9.148;2022-10-28T05:58:31;3.87;;;1.83;;
4827;SDS011;2428;48.732;9.148;2022-10-28T06:00:57;6.73;;;1.97;;
4827;SDS011;2428;48.732;9.148;2022-10-28T06:03:23;3.17;;;1.87;;
4827;SDS011;2428;48.732;9.148;2022-10-28T06:05:48;4.43;;;1.93;;
4827;SDS011;2428;48.732;9.148;2022-10-28T06:08:14;1.73;;;1.60;;
4827;SDS011;2428;48.732;9.148;2022-10-28T06:10:40;2.47;;;1.80;;
4827;SDS011;2428;48.732;9.148;2022-10-28T06:13:13;1.80;;;1.57;;
4827;SDS011;2428;48.732;9.148;2022-10-28T06:15:38;5.00;;;1.87;;
4827;SDS011;2428;48.732;9.148;2022-10-28T06:18:04;1.50;;;1.40;;
4827;SDS011;2428;48.732;9.148;2022-10-28T06:20:30;3.10;;;1.70;;
4827;SDS011;2428;48.732;9.148;2022-10-28T06:22:55;3.97;;;1.20;;
4827;SDS011;2428;48.732;9.148;2022-10-28T06:25:23;1.87;;;1.50;;
4827;SDS011;2428;48.732;9.148;2022-10-28T06:27:57;1.87;;;1.20;;
4827;SDS011;2428;48.732;9.148;2022-10-28T06:30:25;1.50;;;1.40;;
4827;SDS011;2428;48.732;9.148;2022-10-28T06:32:51;1.53;;;1.43;;
4827;SDS011;2428;48.732;9.148;2022-10-28T06:35:17;1.80;;;1.70;;
4827;SDS011;2428;48.732;9.148;2022-10-28T06:37:43;2.03;;;1.43;;
4827;SDS011;2428;48.732;9.148;2022-10-28T06:40:09;3.53;;;2.23;;
4827;SDS011;2428;48.732;9.148;2022-10-28T06:42:34;5.37;;;2.20;;
4827;SDS011;2428;48.732;9.148;2022-10-28T06:45:00;1.93;;;1.60;;
4827;SDS011;2428;48.732;9.148;2022-10-28T06:47:26;1.10;;;1.00;;
4827;SDS011;2428;48.732;9.148;2022-10-28T06:49:51;2.73;;;1.50;;
4827;SDS011;2428;48.732;9.148;2022-10-28T06:52:17;2.60;;;1.60;;
4827;SDS011;2428;48.732;9.148;2022-10-28T06:54:42;2.37;;;2.00;;
4827;SDS011;2428;48.732;9.148;2022-10-28T06:57:09;1.90;;;1.53;;
4827;SDS011;2428;48.732;9.148;2022-10-28T06:59:35;1.80;;;1.67;;
4827;SDS011;2428;48.732;9.148;2022-10-28T07:02:01;1.97;;;1.80;;
4827;SDS011;2428;48.732;9.148;2022-10-28T07:04:27;1.80;;;1.10;;
4827;SDS011;2428;48.732;9.148;2022-10-28T07:06:54;1.73;;;1.47;;
4827;SDS011;2428;48.732;9.148;2022-10-28T07:09:20;2.17;;;1.70;;
4827;SDS011;2428;48.732;9.148;2022-10-28T07:11:49;2.37;;;1.33;;
4827;SDS011;2428;48.732;9.148;2022-10-28T07:14:15;3.30;;;1.40;;
4827;SDS011;2428;48.732;9.148;2022-10-28T07:16:40;2.87;;;1.70;;
4827;SDS011;2428;48.732;9.148;2022-10-28T07:19:06;4.67;;;1.70;;
4827;SDS011;2428;48.732;9.148;2022-10-28T07:21:33;1.77;;;1.60;;
4827;SDS011;2428;48.732;9.148;2022-10-28T07:23:59;2.10;;;1.77;;
4827;SDS011;2428;48.732;9.148;2022-10-28T07:26:24;2.13;;;1.90;;
4827;SDS011;2428;48.732;9.148;2022-10-28T07:28:50;4.73;;;2.70;;
4827;SDS011;2428;48.732;9.148;2022-10-28T07:31:16;3.07;;;1.57;;
4827;SDS011;2428;48.732;9.148;2022-10-28T07:33:42;3.83;;;2.00;;
4827;SDS011;2428;48.732;9.148;2022-10-28T07:36:07;3.17;;;1.70;;
4827;SDS011;2428;48.732;9.148;2022-10-28T07:38:34;2.10;;;1.60;;
4827;SDS011;2428;48.732;9.148;2022-10-28T07:41:06;2.67;;;1.57;;
4827;SDS011;2428;48.732;9.148;2022-10-28T07:43:36;1.87;;;1.70;;
4827;SDS011;2428;48.732;9.148;2022-10-28T07:46:03;2.43;;;1.73;;
4827;SDS011;2428;48.732;9.148;2022-10-28T07:48:33;1.53;;;1.43;;
4827;SDS011;2428;48.732;9.148;2022-10-28T07:51:00;3.33;;;2.50;;
4827;SDS011;2428;48.732;9.148;2022-10-28T07:53:27;2.67;;;1.63;;
4827;SDS011;2428;48.732;9.148;2022-10-28T07:55:54;2.67;;;1.57;;
4827;SDS011;2428;48.732;9.148;2022-10-28T07:58:29;2.60;;;1.60;;
4827;SDS011;2428;48.732;9.148;2022-10-28T08:00:55;3.97;;;2.43;;
4827;SDS011;2428;48.732;9.148;2022-10-28T08:03:25;1.90;;;1.80;;
4827;SDS011;2428;48.732;9.148;2022-10-28T08:05:57;2.10;;;1.90;;
4827;SDS011;2428;48.732;9.148;2022-10-28T08:08:24;2.40;;;2.07;;
4827;SDS011;2428;48.732;9.148;2022-10-28T08:10:50;2.93;;;1.93;;
4827;SDS011;2428;48.732;9.148;2022-10-28T08:13:15;2.40;;;1.53;;
4827;SDS011;2428;48.732;9.148;2022-10-28T08:15:41;3.90;;;1.70;;
4827;SDS011;2428;48.732;9.148;2022-10-28T08:18:06;2.90;;;1.53;;
4827;SDS011;2428;48.732;9.148;2022-10-28T08:20:32;2.77;;;1.40;;
4827;SDS011;2428;48.732;9.148;2022-10-28T08:22:57;4.57;;;1.97;;
4827;SDS011;2428;48.732;9.148;2022-10-28T08:25:23;1.27;;;1.10;;
4827;SDS011;2428;48.732;9.148;2022-10-28T08:27:49;2.10;;;1.43;;
4827;SDS011;2428;48.732;9.148;2022-10-28T08:30:14;2.13;;;1.13;;
4827;SDS011;2428;48.732;9.148;2022-10-28T08:32:40;3.97;;;1.40;;
4827;SDS011;2428;48.732;9.148;2022-10-28T08:35:06;1.33;;;1.03;;
4827;SDS011;2428;48.732;9.148;2022-10-28T08:37:32;2.57;;;1.23;;
4827;SDS011;2428;48.732;9.148;2022-10-28T08:39:58;1.80;;;1.47;;
4827;SDS011;2428;48.732;9.148;2022-10-28T08:51:12;1.80;;;1.30;;
4827;SDS011;2428;48.732;9.148;2022-10-28T08:53:34;1.73;;;1.10;;
4827;SDS011;2428;48.732;9.148;2022-10-28T08:56:09;2.60;;;1.73;;
4827;SDS011;2428;48.732;9.148;2022-10-28T08:58:51;2.23;;;1.27;;
4827;SDS011;2428;48.732;9.148;2022-10-28T09:01:29;2.13;;;0.90;;
4827;SDS011;2428;48.732;9.148;2022-10-28T09:04:09;1.33;;;1.20;;
4827;SDS011;2428;48.732;9.148;2022-10-28T09:06:46;1.83;;;1.00;;
4827;SDS011;2428;48.732;9.148;2022-10-28T09:09:16;2.23;;;1.43;;
4827;SDS011;2428;48.732;9.148;2022-10-28T09:14:31;1.33;;;1.10;;
4827;SDS011;2428;48.732;9.148;2022-10-28T09:17:18;3.77;;;1.40;;
4827;SDS011;2428;48.732;9.148;2022-10-28T09:19:50;1.97;;;1.50;;
4827;SDS011;2428;48.732;9.148;2022-10-28T09:25:19;1.53;;;1.43;;
4827;SDS011;2428;48.732;9.148;2022-10-28T09:35:23;1.07;;;0.97;;
4827;SDS011;2428;48.732;9.148;2022-10-28T09:37:54;1.53;;;1.17;;
4827;SDS011;2428;48.732;9.148;2022-10-28T09:40:26;1.73;;;1.10;;
4827;SDS011;2428;48.732;9.148;2022-10-28T09:43:10;1.50;;;1.17;;
4827;SDS011;2428;48.732;9.148;2022-10-28T09:45:49;1.20;;;1.03;;
4827;SDS011;2428;48.732;9.148;2022-10-28T09:50:45;1.60;;;0.97;;
4827;SDS011;2428;48.732;9.148;2022-10-28T09:53:25;2.40;;;1.23;;
4827;SDS011;2428;48.732;9.148;2022-10-28T09:55:59;2.47;;;1.23;;
4827;SDS011;2428;48.732;9.148;2022-10-28T09:58:26;1.10;;;1.00;;
4827;SDS011;2428;48.732;9.148;2022-10-28T10:00:51;5.37;;;1.40;;
4827;SDS011;2428;48.732;9.148;2022-10-28T10:03:17;2.00;;;1.00;;
4827;SDS011;2428;48.732;9.148;2022-10-28T10:05:43;1.80;;;1.30;;
4827;SDS011;2428;48.732;9.148;2022-10-28T10:08:13;2.00;;;1.13;;
4827;SDS011;2428;48.732;9.148;2022-10-28T10:10:54;1.53;;;1.10;;
4827;SDS011;2428;48.732;9.148;2022-10-28T10:13:31;1.80;;;1.00;;
4827;SDS011;2428;48.732;9.148;2022-10-28T10:16:04;1.50;;;1.20;;
4827;SDS011;2428;48.732;9.148;2022-10-28T10:18:37;1.60;;;1.50;;
4827;SDS011;2428;48.732;9.148;2022-10-28T10:21:10;1.60;;;1.10;;
4827;SDS011;2428;48.732;9.148;2022-10-28T10:23:36;2.30;;;1.50;;
4827;SDS011;2428;48.732;9.148;2022-10-28T10:28:29;1.10;;;1.00;;
4827;SDS011;2428;48.732;9.148;2022-10-28T10:30:57;2.10;;;1.03;;
4827;SDS011;2428;48.732;9.148;2022-10-28T10:36:11;3.27;;;0.90;;
4827;SDS011;2428;48.732;9.148;2022-10-28T10:38:52;1.10;;;1.00;;
4827;SDS011;2428;48.732;9.148;2022-10-28T10:41:31;1.80;;;1.23;;
4827;SDS011;2428;48.732;9.148;2022-10-28T10:49:17;1.77;;;1.07;;
4827;SDS011;2428;48.732;9.148;2022-10-28T10:51:56;4.03;;;1.80;;
4827;SDS011;2428;48.732;9.148;2022-10-28T10:54:22;1.73;;;1.23;;
4827;SDS011;2428;48.732;9.148;2022-10-28T10:56:50;1.33;;;1.23;;
4827;SDS011;2428;48.732;9.148;2022-10-28T10:59:19;2.23;;;1.17;;
4827;SDS011;2428;48.732;9.148;2022-10-28T11:01:51;2.80;;;1.03;;
4827;SDS011;2428;48.732;9.148;2022-10-28T11:04:18;1.73;;;1.17;;
4827;SDS011;2428;48.732;9.148;2022-10-28T11:06:50;1.73;;;1.07;;
4827;SDS011;2428;48.732;9.148;2022-10-28T11:11:55;2.10;;;1.37;;
4827;SDS011;2428;48.732;9.148;2022-10-28T11:14:22;2.17;;;1.07;;
4827;SDS011;2428;48.732;9.148;2022-10-28T11:19:32;1.00;;;0.77;;
4827;SDS011;2428;48.732;9.148;2022-10-28T11:27:24;1.17;;;0.90;;
4827;SDS011;2428;48.732;9.148;2022-10-28T11:30:05;3.27;;;1.27;;
4827;SDS011;2428;48.732;9.148;2022-10-28T11:37:56;2.10;;;1.10;;
4827;SDS011;2428;48.732;9.148;2022-10-28T11:43:17;0.87;;;0.57;;
4827;SDS011;2428;48.732;9.148;2022-10-28T11:51:16;2.30;;;1.20;;
4827;SDS011;2428;48.732;9.148;2022-10-28T11:56:38;1.07;;;0.97;;
4827;SDS011;2428;48.732;9.148;2022-10-28T12:02:03;4.03;;;1.07;;
4827;SDS011;2428;48.732;9.148;2022-10-28T12:05:02;0.90;;;0.60;;
4827;SDS011;2428;48.732;9.148;2022-10-28T12:21:17;2.30;;;1.27;;
4827;SDS011;2428;48.732;9.148;2022-10-28T12:23:46;1.20;;;1.10;;
4827;SDS011;2428;48.732;9.148;2022-10-28T12:26:14;3.23;;;1.53;;
4827;SDS011;2428;48.732;9.148;2022-10-28T12:29:02;1.43;;;1.13;;
4827;SDS011;2428;48.732;9.148;2022-10-28T12:31:30;1.80;;;1.33;;
4827;SDS011;2428;48.732;9.148;2022-10-28T12:34:04;2.23;;;1.27;;
4827;SDS011;2428;48.732;9.148;2022-10-28T12:36:36;1.60;;;1.47;;
4827;SDS011;2428;48.732;9.148;2022-10-28T12:39:21;2.40;;;1.60;;
4827;SDS011;2428;48.732;9.148;2022-10-28T12:42:16;1.40;;;1.20;;
4827;SDS011;2428;48.732;9.148;2022-10-28T12:44:53;1.20;;;0.90;;
4827;SDS011;2428;48.732;9.148;2022-10-28T12:47:36;2.80;;;1.00;;
4827;SDS011;2428;48.732;9.148;2022-10-28T12:56:00;1.50;;;1.10;;
4827;SDS011;2428;48.732;9.148;2022-10-28T13:00:54;1.77;;;1.40;;
4827;SDS011;2428;48.732;9.148;2022-10-28T13:03:24;1.30;;;1.20;;
4827;SDS011;2428;48.732;9.148;2022-10-28T13:14:04;2.83;;;1.20;;
4827;SDS011;2428;48.732;9.148;2022-10-28T13:27:04;1.13;;;1.03;;
4827;SDS011;2428;48.732;9.148;2022-10-28T13:29:33;1.10;;;1.00;;
4827;SDS011;2428;48.732;9.148;2022-10-28T13:32:02;3.73;;;1.10;;
4827;SDS011;2428;48.732;9.148;2022-10-28T13:34:37;3.53;;;1.20;;
4827;SDS011;2428;48.732;9.148;2022-10-28T13:37:04;1.20;;;1.10;;
4827;SDS011;2428;48.732;9.148;2022-10-28T13:39:42;0.70;;;0.60;;
4827;SDS011;2428;48.732;9.148;2022-10-28T13:44:47;1.13;;;0.80;;
4827;SDS011;2428;48.732;9.148;2022-10-28T13:52:30;2.20;;;1.20;;
4827;SDS011;2428;48.732;9.148;2022-10-28T13:56:02;1.63;;;1.10;;
4827;SDS011;2428;48.732;9.148;2022-10-28T13:58:03;1.43;;;0.87;;
4827;SDS011;2428;48.732;9.148;2022-10-28T14:02:59;1.10;;;0.90;;
4827;SDS011;2428;48.732;9.148;2022-10-28T14:08:02;2.60;;;1.60;;
4827;SDS011;2428;48.732;9.148;2022-10-28T14:13:39;2.40;;;1.80;;
4827;SDS011;2428;48.732;9.148;2022-10-28T14:21:20;3.00;;;1.80;;
4827;SDS011;2428;48.732;9.148;2022-10-28T14:26:13;1.43;;;1.27;;
4827;SDS011;2428;48.732;9.148;2022-10-28T14:46:53;1.70;;;1.17;;
4827;SDS011;2428;48.732;9.148;2022-10-28T14:49:31;3.90;;;1.10;;
4827;SDS011;2428;48.732;9.148;2022-10-28T14:52:06;2.90;;;1.50;;
4827;SDS011;2428;48.732;9.148;2022-10-28T14:54:47;1.40;;;1.20;;
4827;SDS011;2428;48.732;9.148;2022-10-28T14:57:16;2.30;;;1.10;;
4827;SDS011;2428;48.732;9.148;2022-10-28T14:59:46;1.10;;;1.00;;
4827;SDS011;2428;48.732;9.148;2022-10-28T15:02:15;3.30;;;1.27;;
4827;SDS011;2428;48.732;9.148;2022-10-28T15:04:45;1.80;;;1.50;;
4827;SDS011;2428;48.732;9.148;2022-10-28T15:07:13;1.77;;;1.30;;
4827;SDS011;2428;48.732;9.148;2022-10-28T15:09:41;1.93;;;1.10;;
4827;SDS011;2428;48.732;9.148;2022-10-28T15:12:10;1.33;;;0.93;;
4827;SDS011;2428;48.732;9.148;2022-10-28T15:14:44;2.47;;;1.33;;
4827;SDS011;2428;48.732;9.148;2022-10-28T15:17:19;1.40;;;0.90;;
4827;SDS011;2428;48.732;9.148;2022-10-28T15:19:48;1.77;;;1.33;;
4827;SDS011;2428;48.732;9.148;2022-10-28T15:22:16;1.73;;;1.13;;
4827;SDS011;2428;48.732;9.148;2022-10-28T15:24:52;1.50;;;1.20;;
4827;SDS011;2428;48.732;9.148;2022-10-28T15:27:19;1.57;;;1.43;;
4827;SDS011;2428;48.732;9.148;2022-10-28T15:29:46;1.57;;;1.37;;
4827;SDS011;2428;48.732;9.148;2022-10-28T15:34:39;2.33;;;1.40;;
4827;SDS011;2428;48.732;9.148;2022-10-28T15:37:05;1.20;;;1.10;;
4827;SDS011;2428;48.732;9.148;2022-10-28T15:39:31;2.53;;;1.60;;
4827;SDS011;2428;48.732;9.148;2022-10-28T15:41:58;2.93;;;1.50;;
4827;SDS011;2428;48.732;9.148;2022-10-28T15:46:56;1.47;;;1.10;;
4827;SDS011;2428;48.732;9.148;2022-10-28T15:49:30;1.73;;;1.30;;
4827;SDS011;2428;48.732;9.148;2022-10-28T15:54:40;2.50;;;1.40;;
4827;SDS011;2428;48.732;9.148;2022-10-28T15:57:11;2.17;;;1.50;;
4827;SDS011;2428;48.732;9.148;2022-10-28T15:59:46;1.27;;;1.17;;
4827;SDS011;2428;48.732;9.148;2022-10-28T16:07:56;2.33;;;1.70;;
4827;SDS011;2428;48.732;9.148;2022-10-28T16:10:30;1.53;;;1.43;;
4827;SDS011;2428;48.732;9.148;2022-10-28T16:13:00;3.90;;;2.13;;
4827;SDS011;2428;48.732;9.148;2022-10-28T16:15:27;2.87;;;1.80;;
4827;SDS011;2428;48.732;9.148;2022-10-28T16:17:53;3.37;;;2.23;;
4827;SDS011;2428;48.732;9.148;2022-10-28T16:20:22;4.07;;;2.10;;
4827;SDS011;2428;48.732;9.148;2022-10-28T16:22:51;2.60;;;2.27;;
4827;SDS011;2428;48.732;9.148;2022-10-28T16:25:18;5.23;;;2.50;;
4827;SDS011;2428;48.732;9.148;2022-10-28T16:27:45;3.43;;;2.10;;
4827;SDS011;2428;48.732;9.148;2022-10-28T16:30:10;4.47;;;3.10;;
4827;SDS011;2428;48.732;9.148;2022-10-28T16:32:37;2.63;;;2.20;;
4827;SDS011;2428;48.732;9.148;2022-10-28T16:35:19;1.93;;;1.73;;
4827;SDS011;2428;48.732;9.148;2022-10-28T16:37:46;1.53;;;1.30;;
4827;SDS011;2428;48.732;9.148;2022-10-28T16:40:13;2.93;;;2.50;;
4827;SDS011;2428;48.732;9.148;2022-10-28T16:42:38;4.13;;;2.07;;
4827;SDS011;2428;48.732;9.148;2022-10-28T16:45:16;2.10;;;2.00;;
4827;SDS011;2428;48.732;9.148;2022-10-28T16:47:42;4.17;;;2.67;;
4827;SDS011;2428;48.732;9.148;2022-10-28T16:50:09;4.70;;;2.03;;
4827;SDS011;2428;48.732;9.148;2022-10-28T16:52:35;2.33;;;2.00;;
4827;SDS011;2428;48.732;9.148;2022-10-28T16:55:00;1.80;;;1.70;;
4827;SDS011;2428;48.732;9.148;2022-10-28T16:57:26;3.27;;;1.70;;
4827;SDS011;2428;48.732;9.148;2022-10-28T16:59:52;3.27;;;2.00;;
4827;SDS011;2428;48.732;9.148;2022-10-28T17:02:19;2.30;;;1.77;;
4827;SDS011;2428;48.732;9.148;2022-10-28T17:04:53;2.37;;;1.90;;
4827;SDS011;2428;48.732;9.148;2022-10-28T17:07:19;2.30;;;1.90;;
4827;SDS011;2428;48.732;9.148;2022-10-28T17:09:44;3.00;;;2.00;;
4827;SDS011;2428;48.732;9.148;2022-10-28T17:12:14;2.77;;;2.00;;
4827;SDS011;2428;48.732;9.148;2022-10-28T17:14:42;4.07;;;2.40;;
4827;SDS011;2428;48.732;9.148;2022-10-28T17:17:08;5.47;;;2.77;;
4827;SDS011;2428;48.732;9.148;2022-10-28T17:19:34;3.53;;;2.67;;
4827;SDS011;2428;48.732;9.148;2022-10-28T17:22:03;2.60;;;2.10;;
4827;SDS011;2428;48.732;9.148;2022-10-28T17:24:29;2.57;;;1.90;;
4827;SDS011;2428;48.732;9.148;2022-10-28T17:26:55;4.20;;;1.83;;
4827;SDS011;2428;48.732;9.148;2022-10-28T17:29:20;2.33;;;2.13;;
4827;SDS011;2428;48.732;9.148;2022-10-28T17:31:46;3.67;;;1.80;;
4827;SDS011;2428;48.732;9.148;2022-10-28T17:34:11;3.90;;;2.23;;
4827;SDS011;2428;48.732;9.148;2022-10-28T17:36:37;2.50;;;2.27;;
4827;SDS011;2428;48.732;9.148;2022-10-28T17:39:03;4.73;;;2.40;;
4827;SDS011;2428;48.732;9.148;2022-10-28T17:41:28;4.60;;;2.43;;
4827;SDS011;2428;48.732;9.148;2022-10-28T17:43:54;3.50;;;2.20;;
4827;SDS011;2428;48.732;9.148;2022-10-28T17:46:20;3.10;;;1.67;;
4827;SDS011;2428;48.732;9.148;2022-10-28T17:48:45;3.40;;;2.00;;
4827;SDS011;2428;48.732;9.148;2022-10-28T17:51:11;3.43;;;2.13;;
4827;SDS011;2428;48.732;9.148;2022-10-28T17:53:37;2.80;;;2.07;;
4827;SDS011;2428;48.732;9.148;2022-10-28T17:56:03;2.10;;;1.97;;
4827;SDS011;2428;48.732;9.148;2022-10-28T17:58:30;2.50;;;1.73;;
4827;SDS011;2428;48.732;9.148;2022-10-28T18:01:06;2.17;;;1.67;;
4827;SDS011;2428;48.732;9.148;2022-10-28T18:03:32;1.93;;;1.73;;
4827;SDS011;2428;48.732;9.148;2022-10-28T18:06:02;2.60;;;1.90;;
4827;SDS011;2428;48.732;9.148;2022-10-28T18:08:32;7.40;;;4.10;;
4827;SDS011;2428;48.732;9.148;2022-10-28T18:11:01;4.83;;;2.43;;
4827;SDS011;2428;48.732;9.148;2022-10-28T18:13:30;3.93;;;2.93;;
4827;SDS011;2428;48.732;9.148;2022-10-28T18:16:08;2.77;;;2.33;;
4827;SDS011;2428;48.732;9.148;2022-10-28T18:18:35;5.03;;;2.60;;
4827;SDS011;2428;48.732;9.148;2022-10-28T18:21:01;3.07;;;2.40;;
4827;SDS011;2428;48.732;9.148;2022-10-28T18:23:26;2.50;;;2.30;;
4827;SDS011;2428;48.732;9.148;2022-10-28T18:26:02;4.80;;;2.23;;
4827;SDS011;2428;48.732;9.148;2022-10-28T18:28:29;3.83;;;2.03;;
4827;SDS011;2428;48.732;9.148;2022-10-28T18:31:07;2.60;;;1.97;;
4827;SDS011;2428;48.732;9.148;2022-10-28T18:33:33;2.50;;;1.87;;
4827;SDS011;2428;48.732;9.148;2022-10-28T18:36:00;3.73;;;2.27;;
4827;SDS011;2428;48.732;9.148;2022-10-28T18:38:27;1.77;;;1.67;;
4827;SDS011;2428;48.732;9.148;2022-10-28T18:40:53;3.40;;;2.33;;